sensor_id;sensor_type;location;lat;lon;timestamp;temperature;humidity
1391;DHT22;690;51.454;7.194;2022-12-24T00:01:30;12.90;99.90
1391;DHT22;690;51.454;7.194;2022-12-24T00:03:57;12.90;99.90
1391;DHT22;690;51.454;7.194;2022-12-24T00:06:23;12.90;99.90
1391;DHT22;690;51.454;7.194;2022-12-24T00:08:51;12.80;99.90
1391;DHT22;690;51.454;7.194;2022-12-24T00:11:19;12.80;99.90
1391;DHT22;690;51.454;7.194;2022-12-24T00:13:46;12.80;99.90
1391;DHT22;690;51.454;7.194;2022-12-24T00:16:13;12.80;1.00
1391;DHT22;690;51.454;7.194;2022-12-24T00:18:40;12.80;99.90
1391;DHT22;690;51.454;7.194;2022-12-24T00:21:07;12.70;1.00
1391;DHT22;690;51.454;7.194;2022-12-24T00:23:34;12.80;99.90
1391;DHT22;690;51.454;7.194;2022-12-24T00:26:01;12.80;1.00
1391;DHT22;690;51.454;7.194;2022-12-24T00:28:29;12.80;99.90
1391;DHT22;690;51.454;7.194;2022-12-24T00:30:56;12.80;99.90
1391;DHT22;690;51.454;7.194;2022-12-24T00:33:22;12.80;99.90
1391;DHT22;690;51.454;7.194;2022-12-24T00:35:50;12.80;65.20
1391;DHT22;690;51.454;7.194;2022-12-24T00:38:17;12.80;1.00
1391;DHT22;690;51.454;7.194;2022-12-24T00:40:44;12.80;1.00
1391;DHT22;690;51.454;7.194;2022-12-24T00:43:11;12.70;1.00
1391;DHT22;690;51.454;7.194;2022-12-24T00:45:39;12.80;1.00
1391;DHT22;690;51.454;7.194;2022-12-24T00:48:06;12.80;1.00
1391;DHT22;690;51.454;7.194;2022-12-24T00:50:33;12.80;99.90
1391;DHT22;690;51.454;7.194;2022-12-24T00:53:00;12.80;99.90
1391;DHT22;690;51.454;7.194;2022-12-24T00:55:26;12.80;1.00
1391;DHT22;690;51.454;7.194;2022-12-24T00:57:53;12.80;1.00
1391;DHT22;690;51.454;7.194;2022-12-24T01:00:20;12.80;1.00
1391;DHT22;690;51.454;7.194;2022-12-24T01:02:49;12.80;1.00
1391;DHT22;690;51.454;7.194;2022-12-24T01:05:15;12.80;1.00
1391;DHT22;690;51.454;7.194;2022-12-24T01:07:45;12.80;99.90
1391;DHT22;690;51.454;7.194;2022-12-24T01:10:14;12.80;99.90
1391;DHT22;690;51.454;7.194;2022-12-24T01:12:42;12.70;1.00
1391;DHT22;690;51.454;7.194;2022-12-24T01:15:10;12.70;1.00
1391;DHT22;690;51.454;7.194;2022-12-24T01:17:37;12.70;1.00
1391;DHT22;690;51.454;7.194;2022-12-24T01:20:07;12.70;1.00
1391;DHT22;690;51.454;7.194;2022-12-24T01:22:34;12.80;1.00
1391;DHT22;690;51.454;7.194;2022-12-24T01:25:01;12.80;1.00
1391;DHT22;690;51.454;7.194;2022-12-24T01:27:28;12.80;1.00
1391;DHT22;690;51.454;7.194;2022-12-24T01:29:55;12.80;99.90
1391;DHT22;690;51.454;7.194;2022-12-24T01:32:22;12.80;99.90
1391;DHT22;690;51.454;7.194;2022-12-24T01:34:49;12.80;99.90
1391;DHT22;690;51.454;7.194;2022-12-24T01:37:17;12.80;99.90
1391;DHT22;690;51.454;7.194;2022-12-24T01:39:44;12.80;99.90
1391;DHT22;690;51.454;7.194;2022-12-24T01:42:17;12.80;99.90
1391;DHT22;690;51.454;7.194;2022-12-24T01:45:30;12.80;99.90
1391;DHT22;690;51.454;7.194;2022-12-24T01:47:59;12.80;99.90
1391;DHT22;690;51.454;7.194;2022-12-24T01:50:27;12.80;99.90
1391;DHT22;690;51.454;7.194;2022-12-24T01:52:55;12.80;99.90
1391;DHT22;690;51.454;7.194;2022-12-24T01:55:23;12.80;99.90
1391;DHT22;690;51.454;7.194;2022-12-24T01:57:54;12.80;99.90
1391;DHT22;690;51.454;7.194;2022-12-24T02:00:22;12.70;99.90
1391;DHT22;690;51.454;7.194;2022-12-24T02:02:50;12.80;99.90
1391;DHT22;690;51.454;7.194;2022-12-24T02:05:23;12.70;99.90
1391;DHT22;690;51.454;7.194;2022-12-24T02:07:52;12.70;99.90
1391;DHT22;690;51.454;7.194;2022-12-24T02:10:20;12.70;99.90
1391;DHT22;690;51.454;7.194;2022-12-24T02:12:47;12.70;99.90
1391;DHT22;690;51.454;7.194;2022-12-24T02:15:19;12.70;99.90
1391;DHT22;690;51.454;7.194;2022-12-24T02:17:53;12.70;99.90
1391;DHT22;690;51.454;7.194;2022-12-24T02:20:45;12.70;99.90
1391;DHT22;690;51.454;7.194;2022-12-24T02:23:56;12.70;99.90
1391;DHT22;690;51.454;7.194;2022-12-24T02:26:42;12.70;99.90
1391;DHT22;690;51.454;7.194;2022-12-24T02:29:21;12.70;99.90
1391;DHT22;690;51.454;7.194;2022-12-24T02:31:58;12.60;99.90
1391;DHT22;690;51.454;7.194;2022-12-24T02:34:30;12.60;99.90
1391;DHT22;690;51.454;7.194;2022-12-24T02:37:02;12.60;99.90
1391;DHT22;690;51.454;7.194;2022-12-24T02:39:35;12.60;99.90
1391;DHT22;690;51.454;7.194;2022-12-24T02:42:05;12.50;99.90
1391;DHT22;690;51.454;7.194;2022-12-24T02:44:37;12.50;99.90
1391;DHT22;690;51.454;7.194;2022-12-24T02:47:08;12.50;99.90
1391;DHT22;690;51.454;7.194;2022-12-24T02:49:36;12.40;99.90
1391;DHT22;690;51.454;7.194;2022-12-24T02:52:04;12.40;99.90
1391;DHT22;690;51.454;7.194;2022-12-24T02:54:31;12.40;99.90
1391;DHT22;690;51.454;7.194;2022-12-24T02:57:15;12.40;99.90
1391;DHT22;690;51.454;7.194;2022-12-24T03:00:00;12.40;99.90
1391;DHT22;690;51.454;7.194;2022-12-24T03:02:39;12.30;99.90
1391;DHT22;690;51.454;7.194;2022-12-24T03:05:17;12.30;99.90
1391;DHT22;690;51.454;7.194;2022-12-24T03:07:52;12.30;99.90
1391;DHT22;690;51.454;7.194;2022-12-24T03:10:26;12.30;99.90
1391;DHT22;690;51.454;7.194;2022-12-24T03:12:56;12.30;99.90
1391;DHT22;690;51.454;7.194;2022-12-24T03:15:25;12.20;1.00
1391;DHT22;690;51.454;7.194;2022-12-24T03:17:56;12.20;1.00
1391;DHT22;690;51.454;7.194;2022-12-24T03:20:26;12.20;1.00
1391;DHT22;690;51.454;7.194;2022-12-24T03:22:54;12.20;1.00
1391;DHT22;690;51.454;7.194;2022-12-24T03:25:23;12.20;1.00
1391;DHT22;690;51.454;7.194;2022-12-24T03:27:51;12.20;1.00
1391;DHT22;690;51.454;7.194;2022-12-24T03:30:19;12.20;1.00
1391;DHT22;690;51.454;7.194;2022-12-24T03:32:46;12.20;1.00
1391;DHT22;690;51.454;7.194;2022-12-24T03:35:14;12.20;1.00
1391;DHT22;690;51.454;7.194;2022-12-24T03:37:41;12.20;1.00
1391;DHT22;690;51.454;7.194;2022-12-24T03:40:09;12.30;1.00
1391;DHT22;690;51.454;7.194;2022-12-24T03:42:36;12.30;1.00
1391;DHT22;690;51.454;7.194;2022-12-24T03:45:03;12.30;1.00
1391;DHT22;690;51.454;7.194;2022-12-24T03:47:30;12.30;1.00
1391;DHT22;690;51.454;7.194;2022-12-24T03:49:57;12.30;1.00
1391;DHT22;690;51.454;7.194;2022-12-24T03:52:25;12.30;1.00
1391;DHT22;690;51.454;7.194;2022-12-24T03:54:52;12.30;1.00
1391;DHT22;690;51.454;7.194;2022-12-24T03:57:19;12.30;1.00
1391;DHT22;690;51.454;7.194;2022-12-24T03:59:46;12.30;1.00
1391;DHT22;690;51.454;7.194;2022-12-24T04:02:13;12.40;1.00
1391;DHT22;690;51.454;7.194;2022-12-24T04:04:40;12.40;1.00
1391;DHT22;690;51.454;7.194;2022-12-24T04:07:06;12.40;1.00
1391;DHT22;690;51.454;7.194;2022-12-24T04:09:35;12.30;55.00
1391;DHT22;690;51.454;7.194;2022-12-24T04:12:02;12.40;31.80
1391;DHT22;690;51.454;7.194;2022-12-24T04:14:28;12.40;55.20
1391;DHT22;690;51.454;7.194;2022-12-24T04:16:55;12.40;99.90
1391;DHT22;690;51.454;7.194;2022-12-24T04:19:22;12.40;99.90
1391;DHT22;690;51.454;7.194;2022-12-24T04:21:49;12.40;99.90
1391;DHT22;690;51.454;7.194;2022-12-24T04:24:16;12.40;95.20
1391;DHT22;690;51.454;7.194;2022-12-24T04:26:44;12.40;94.30
1391;DHT22;690;51.454;7.194;2022-12-24T04:29:11;12.40;74.80
1391;DHT22;690;51.454;7.194;2022-12-24T04:31:38;12.40;84.10
1391;DHT22;690;51.454;7.194;2022-12-24T04:34:05;12.40;99.90
1391;DHT22;690;51.454;7.194;2022-12-24T04:36:32;12.40;99.90
1391;DHT22;690;51.454;7.194;2022-12-24T04:38:59;12.40;99.90
1391;DHT22;690;51.454;7.194;2022-12-24T04:41:26;12.40;99.90
1391;DHT22;690;51.454;7.194;2022-12-24T04:43:54;12.40;99.90
1391;DHT22;690;51.454;7.194;2022-12-24T04:46:23;12.40;99.90
1391;DHT22;690;51.454;7.194;2022-12-24T04:48:51;12.40;99.90
1391;DHT22;690;51.454;7.194;2022-12-24T04:51:19;12.40;99.90
1391;DHT22;690;51.454;7.194;2022-12-24T04:53:46;12.40;99.90
1391;DHT22;690;51.454;7.194;2022-12-24T04:56:14;12.40;99.90
1391;DHT22;690;51.454;7.194;2022-12-24T04:58:42;12.30;1.00
1391;DHT22;690;51.454;7.194;2022-12-24T05:01:13;12.40;1.00
1391;DHT22;690;51.454;7.194;2022-12-24T05:03:41;12.40;1.00
1391;DHT22;690;51.454;7.194;2022-12-24T05:06:11;12.40;1.00
1391;DHT22;690;51.454;7.194;2022-12-24T05:08:38;12.40;1.00
1391;DHT22;690;51.454;7.194;2022-12-24T05:11:05;12.40;1.00
1391;DHT22;690;51.454;7.194;2022-12-24T05:13:33;12.40;1.00
1391;DHT22;690;51.454;7.194;2022-12-24T05:16:00;12.40;1.00
1391;DHT22;690;51.454;7.194;2022-12-24T05:18:28;12.40;99.90
1391;DHT22;690;51.454;7.194;2022-12-24T05:20:55;12.30;99.90
1391;DHT22;690;51.454;7.194;2022-12-24T05:23:23;12.30;99.90
1391;DHT22;690;51.454;7.194;2022-12-24T05:26:13;12.30;99.90
1391;DHT22;690;51.454;7.194;2022-12-24T05:28:47;12.40;99.90
1391;DHT22;690;51.454;7.194;2022-12-24T05:31:14;12.40;1.00
1391;DHT22;690;51.454;7.194;2022-12-24T05:33:42;12.30;1.00
1391;DHT22;690;51.454;7.194;2022-12-24T05:36:09;12.40;1.00
1391;DHT22;690;51.454;7.194;2022-12-24T05:38:36;12.40;1.00
1391;DHT22;690;51.454;7.194;2022-12-24T05:41:03;12.40;1.00
1391;DHT22;690;51.454;7.194;2022-12-24T05:43:30;12.40;89.00
1391;DHT22;690;51.454;7.194;2022-12-24T05:45:58;12.40;99.90
1391;DHT22;690;51.454;7.194;2022-12-24T05:48:24;12.40;99.90
1391;DHT22;690;51.454;7.194;2022-12-24T05:50:54;12.40;99.90
1391;DHT22;690;51.454;7.194;2022-12-24T05:53:21;12.40;99.90
1391;DHT22;690;51.454;7.194;2022-12-24T05:55:48;12.40;99.90
1391;DHT22;690;51.454;7.194;2022-12-24T05:58:15;12.40;99.90
1391;DHT22;690;51.454;7.194;2022-12-24T06:00:42;12.50;99.90
1391;DHT22;690;51.454;7.194;2022-12-24T06:03:09;12.50;99.90
1391;DHT22;690;51.454;7.194;2022-12-24T06:05:36;12.40;99.90
1391;DHT22;690;51.454;7.194;2022-12-24T06:08:07;12.50;99.90
1391;DHT22;690;51.454;7.194;2022-12-24T06:10:34;12.50;99.90
1391;DHT22;690;51.454;7.194;2022-12-24T06:13:00;12.50;99.90
1391;DHT22;690;51.454;7.194;2022-12-24T06:15:27;12.50;99.90
1391;DHT22;690;51.454;7.194;2022-12-24T06:17:54;12.40;99.90
1391;DHT22;690;51.454;7.194;2022-12-24T06:20:21;12.40;99.90
1391;DHT22;690;51.454;7.194;2022-12-24T06:22:48;12.40;99.90
1391;DHT22;690;51.454;7.194;2022-12-24T06:25:16;12.40;1.00
1391;DHT22;690;51.454;7.194;2022-12-24T06:27:43;12.40;1.00
1391;DHT22;690;51.454;7.194;2022-12-24T06:30:10;12.50;99.90
1391;DHT22;690;51.454;7.194;2022-12-24T06:32:37;12.50;99.90
1391;DHT22;690;51.454;7.194;2022-12-24T06:35:04;12.50;99.90
1391;DHT22;690;51.454;7.194;2022-12-24T06:37:31;12.50;99.90
1391;DHT22;690;51.454;7.194;2022-12-24T06:39:58;12.50;99.90
1391;DHT22;690;51.454;7.194;2022-12-24T06:42:26;12.50;99.90
1391;DHT22;690;51.454;7.194;2022-12-24T06:44:53;12.50;99.90
1391;DHT22;690;51.454;7.194;2022-12-24T06:47:19;12.50;99.90
1391;DHT22;690;51.454;7.194;2022-12-24T06:49:46;12.50;99.90
1391;DHT22;690;51.454;7.194;2022-12-24T06:52:13;12.50;99.90
1391;DHT22;690;51.454;7.194;2022-12-24T06:54:40;12.50;99.90
1391;DHT22;690;51.454;7.194;2022-12-24T06:57:07;12.50;99.90
1391;DHT22;690;51.454;7.194;2022-12-24T06:59:35;12.50;99.90
1391;DHT22;690;51.454;7.194;2022-12-24T07:02:02;12.50;99.90
1391;DHT22;690;51.454;7.194;2022-12-24T07:04:29;12.50;99.90
1391;DHT22;690;51.454;7.194;2022-12-24T07:06:56;12.50;99.90
1391;DHT22;690;51.454;7.194;2022-12-24T07:09:22;12.50;15.90
1391;DHT22;690;51.454;7.194;2022-12-24T07:11:49;12.50;80.10
1391;DHT22;690;51.454;7.194;2022-12-24T07:14:16;12.50;1.00
1391;DHT22;690;51.454;7.194;2022-12-24T07:16:44;12.50;99.90
1391;DHT22;690;51.454;7.194;2022-12-24T07:19:11;12.50;18.40
1391;DHT22;690;51.454;7.194;2022-12-24T07:21:38;12.50;1.00
1391;DHT22;690;51.454;7.194;2022-12-24T07:24:05;12.50;1.00
1391;DHT22;690;51.454;7.194;2022-12-24T07:26:32;12.50;1.00
1391;DHT22;690;51.454;7.194;2022-12-24T07:28:59;12.50;1.00
1391;DHT22;690;51.454;7.194;2022-12-24T07:31:26;12.50;1.00
1391;DHT22;690;51.454;7.194;2022-12-24T07:33:54;12.50;1.00
1391;DHT22;690;51.454;7.194;2022-12-24T07:36:21;12.50;1.00
1391;DHT22;690;51.454;7.194;2022-12-24T07:38:49;12.50;1.00
1391;DHT22;690;51.454;7.194;2022-12-24T07:41:17;12.50;1.00
1391;DHT22;690;51.454;7.194;2022-12-24T07:43:44;12.50;1.00
1391;DHT22;690;51.454;7.194;2022-12-24T07:46:11;12.50;1.00
1391;DHT22;690;51.454;7.194;2022-12-24T07:48:38;12.50;99.90
1391;DHT22;690;51.454;7.194;2022-12-24T07:51:06;12.50;1.00
1391;DHT22;690;51.454;7.194;2022-12-24T07:53:33;12.50;1.00
1391;DHT22;690;51.454;7.194;2022-12-24T07:56:00;12.50;99.90
1391;DHT22;690;51.454;7.194;2022-12-24T07:58:27;12.50;99.90
1391;DHT22;690;51.454;7.194;2022-12-24T08:00:55;12.50;99.90
1391;DHT22;690;51.454;7.194;2022-12-24T08:03:22;12.50;99.90
1391;DHT22;690;51.454;7.194;2022-12-24T08:05:49;12.50;2.60
1391;DHT22;690;51.454;7.194;2022-12-24T08:08:19;12.50;52.50
1391;DHT22;690;51.454;7.194;2022-12-24T08:10:47;12.50;59.80
1391;DHT22;690;51.454;7.194;2022-12-24T08:13:14;12.50;9.50
1391;DHT22;690;51.454;7.194;2022-12-24T08:15:41;12.60;1.00
1391;DHT22;690;51.454;7.194;2022-12-24T08:18:08;12.60;1.00
1391;DHT22;690;51.454;7.194;2022-12-24T08:20:37;12.60;1.00
1391;DHT22;690;51.454;7.194;2022-12-24T08:23:04;12.60;1.00
1391;DHT22;690;51.454;7.194;2022-12-24T08:25:32;12.60;1.00
1391;DHT22;690;51.454;7.194;2022-12-24T08:27:59;12.60;1.00
1391;DHT22;690;51.454;7.194;2022-12-24T08:30:26;12.70;1.00
1391;DHT22;690;51.454;7.194;2022-12-24T08:32:54;12.70;1.00
1391;DHT22;690;51.454;7.194;2022-12-24T08:35:20;12.70;1.00
1391;DHT22;690;51.454;7.194;2022-12-24T08:37:48;12.70;99.90
1391;DHT22;690;51.454;7.194;2022-12-24T08:40:15;12.70;99.90
1391;DHT22;690;51.454;7.194;2022-12-24T08:42:43;12.70;99.90
1391;DHT22;690;51.454;7.194;2022-12-24T08:45:11;12.70;99.90
1391;DHT22;690;51.454;7.194;2022-12-24T08:47:38;12.70;99.90
1391;DHT22;690;51.454;7.194;2022-12-24T08:50:06;12.60;99.90
1391;DHT22;690;51.454;7.194;2022-12-24T08:52:33;12.60;99.90
1391;DHT22;690;51.454;7.194;2022-12-24T08:55:00;12.70;99.90
1391;DHT22;690;51.454;7.194;2022-12-24T08:57:27;12.70;99.90
1391;DHT22;690;51.454;7.194;2022-12-24T08:59:55;12.70;99.90
1391;DHT22;690;51.454;7.194;2022-12-24T09:02:22;12.70;99.90
1391;DHT22;690;51.454;7.194;2022-12-24T09:04:49;12.70;99.90
1391;DHT22;690;51.454;7.194;2022-12-24T09:07:16;12.70;93.60
1391;DHT22;690;51.454;7.194;2022-12-24T09:09:42;12.70;99.90
1391;DHT22;690;51.454;7.194;2022-12-24T09:12:10;12.70;99.90
1391;DHT22;690;51.454;7.194;2022-12-24T09:14:37;12.70;8.20
1391;DHT22;690;51.454;7.194;2022-12-24T09:17:05;12.70;99.20
1391;DHT22;690;51.454;7.194;2022-12-24T09:19:32;12.70;99.90
1391;DHT22;690;51.454;7.194;2022-12-24T09:21:58;12.80;99.90
1391;DHT22;690;51.454;7.194;2022-12-24T09:24:25;12.80;19.40
1391;DHT22;690;51.454;7.194;2022-12-24T09:26:52;12.80;1.00
1391;DHT22;690;51.454;7.194;2022-12-24T09:29:19;12.80;1.00
1391;DHT22;690;51.454;7.194;2022-12-24T09:31:46;12.90;1.00
1391;DHT22;690;51.454;7.194;2022-12-24T09:34:14;12.90;1.00
1391;DHT22;690;51.454;7.194;2022-12-24T09:36:41;12.90;1.00
1391;DHT22;690;51.454;7.194;2022-12-24T09:39:08;12.90;1.00
1391;DHT22;690;51.454;7.194;2022-12-24T09:41:48;12.90;1.00
1391;DHT22;690;51.454;7.194;2022-12-24T09:44:27;12.90;1.00
1391;DHT22;690;51.454;7.194;2022-12-24T09:47:00;13.00;1.00
1391;DHT22;690;51.454;7.194;2022-12-24T09:49:36;13.00;1.00
1391;DHT22;690;51.454;7.194;2022-12-24T09:52:08;13.20;1.00
1391;DHT22;690;51.454;7.194;2022-12-24T09:54:38;13.20;1.00
1391;DHT22;690;51.454;7.194;2022-12-24T09:57:13;13.20;1.00
1391;DHT22;690;51.454;7.194;2022-12-24T09:59:43;13.30;99.90
1391;DHT22;690;51.454;7.194;2022-12-24T10:02:12;13.20;99.90
1391;DHT22;690;51.454;7.194;2022-12-24T10:04:42;13.20;99.90
1391;DHT22;690;51.454;7.194;2022-12-24T10:07:19;13.20;99.90
1391;DHT22;690;51.454;7.194;2022-12-24T10:09:58;13.20;99.90
1391;DHT22;690;51.454;7.194;2022-12-24T10:12:35;13.20;99.90
1391;DHT22;690;51.454;7.194;2022-12-24T10:15:09;13.10;99.90
1391;DHT22;690;51.454;7.194;2022-12-24T10:17:49;13.10;99.90
1391;DHT22;690;51.454;7.194;2022-12-24T10:20:33;13.10;99.90
1391;DHT22;690;51.454;7.194;2022-12-24T10:23:07;13.20;99.90
1391;DHT22;690;51.454;7.194;2022-12-24T10:25:43;13.20;99.90
1391;DHT22;690;51.454;7.194;2022-12-24T10:28:15;13.20;99.90
1391;DHT22;690;51.454;7.194;2022-12-24T10:30:43;13.30;1.00
1391;DHT22;690;51.454;7.194;2022-12-24T10:33:17;13.40;99.90
1391;DHT22;690;51.454;7.194;2022-12-24T10:35:51;13.50;99.90
1391;DHT22;690;51.454;7.194;2022-12-24T10:38:19;13.50;99.90
1391;DHT22;690;51.454;7.194;2022-12-24T10:40:47;13.60;99.90
1391;DHT22;690;51.454;7.194;2022-12-24T10:43:17;13.60;99.90
1391;DHT22;690;51.454;7.194;2022-12-24T10:45:46;13.60;99.90
1391;DHT22;690;51.454;7.194;2022-12-24T10:48:20;13.60;99.90
1391;DHT22;690;51.454;7.194;2022-12-24T10:50:55;13.70;99.90
1391;DHT22;690;51.454;7.194;2022-12-24T10:53:35;13.70;99.90
1391;DHT22;690;51.454;7.194;2022-12-24T10:56:05;13.90;99.90
1391;DHT22;690;51.454;7.194;2022-12-24T10:58:32;13.90;1.00
1391;DHT22;690;51.454;7.194;2022-12-24T11:01:00;14.00;1.00
1391;DHT22;690;51.454;7.194;2022-12-24T11:03:32;14.00;1.00
1391;DHT22;690;51.454;7.194;2022-12-24T11:06:11;14.00;1.00
1391;DHT22;690;51.454;7.194;2022-12-24T11:08:41;14.00;1.00
1391;DHT22;690;51.454;7.194;2022-12-24T11:11:10;14.00;1.00
1391;DHT22;690;51.454;7.194;2022-12-24T11:13:40;13.90;1.00
1391;DHT22;690;51.454;7.194;2022-12-24T11:16:16;13.90;1.00
1391;DHT22;690;51.454;7.194;2022-12-24T11:18:45;13.90;1.00
1391;DHT22;690;51.454;7.194;2022-12-24T11:21:20;13.90;1.00
1391;DHT22;690;51.454;7.194;2022-12-24T11:23:49;13.80;99.90
1391;DHT22;690;51.454;7.194;2022-12-24T11:26:21;13.80;99.90
1391;DHT22;690;51.454;7.194;2022-12-24T11:29:04;13.70;99.90
1391;DHT22;690;51.454;7.194;2022-12-24T11:31:31;13.80;99.90
1391;DHT22;690;51.454;7.194;2022-12-24T11:34:17;13.80;1.00
1391;DHT22;690;51.454;7.194;2022-12-24T11:36:46;13.80;1.00
1391;DHT22;690;51.454;7.194;2022-12-24T11:39:18;13.90;1.00
1391;DHT22;690;51.454;7.194;2022-12-24T11:41:45;13.90;1.00
1391;DHT22;690;51.454;7.194;2022-12-24T11:44:13;13.90;1.00
1391;DHT22;690;51.454;7.194;2022-12-24T11:46:41;14.00;1.00
1391;DHT22;690;51.454;7.194;2022-12-24T11:49:21;14.00;99.90
1391;DHT22;690;51.454;7.194;2022-12-24T11:52:10;13.90;99.90
1391;DHT22;690;51.454;7.194;2022-12-24T11:54:44;13.90;99.90
1391;DHT22;690;51.454;7.194;2022-12-24T11:57:16;13.80;99.90
1391;DHT22;690;51.454;7.194;2022-12-24T11:59:46;13.80;99.90
1391;DHT22;690;51.454;7.194;2022-12-24T12:02:18;13.80;99.90
1391;DHT22;690;51.454;7.194;2022-12-24T12:04:50;13.80;99.90
1391;DHT22;690;51.454;7.194;2022-12-24T12:07:23;13.80;99.90
1391;DHT22;690;51.454;7.194;2022-12-24T12:09:55;13.80;99.90
1391;DHT22;690;51.454;7.194;2022-12-24T12:12:25;13.70;99.90
1391;DHT22;690;51.454;7.194;2022-12-24T12:14:55;13.70;99.90
1391;DHT22;690;51.454;7.194;2022-12-24T12:17:30;13.70;99.90
1391;DHT22;690;51.454;7.194;2022-12-24T12:20:02;13.80;99.90
1391;DHT22;690;51.454;7.194;2022-12-24T12:22:36;13.80;99.90
1391;DHT22;690;51.454;7.194;2022-12-24T12:25:10;13.70;99.90
1391;DHT22;690;51.454;7.194;2022-12-24T12:27:43;13.70;99.90
1391;DHT22;690;51.454;7.194;2022-12-24T12:30:15;13.70;99.90
1391;DHT22;690;51.454;7.194;2022-12-24T12:32:48;13.80;99.90
1391;DHT22;690;51.454;7.194;2022-12-24T12:35:22;13.80;99.90
1391;DHT22;690;51.454;7.194;2022-12-24T12:37:57;13.70;99.90
1391;DHT22;690;51.454;7.194;2022-12-24T12:40:36;13.70;99.90
1391;DHT22;690;51.454;7.194;2022-12-24T12:43:12;13.60;99.90
1391;DHT22;690;51.454;7.194;2022-12-24T12:45:47;13.60;99.90
1391;DHT22;690;51.454;7.194;2022-12-24T12:48:27;13.60;99.90
1391;DHT22;690;51.454;7.194;2022-12-24T12:51:01;13.60;99.90
1391;DHT22;690;51.454;7.194;2022-12-24T12:53:49;13.60;99.90
1391;DHT22;690;51.454;7.194;2022-12-24T12:56:27;13.60;99.90
1391;DHT22;690;51.454;7.194;2022-12-24T12:59:01;13.60;99.90
1391;DHT22;690;51.454;7.194;2022-12-24T13:01:39;13.60;99.90
1391;DHT22;690;51.454;7.194;2022-12-24T13:04:39;13.60;99.90
1391;DHT22;690;51.454;7.194;2022-12-24T13:07:32;13.60;99.90
1391;DHT22;690;51.454;7.194;2022-12-24T13:10:44;13.60;99.90
1391;DHT22;690;51.454;7.194;2022-12-24T13:19:42;13.70;99.90
1391;DHT22;690;51.454;7.194;2022-12-24T13:22:14;13.80;99.90
1391;DHT22;690;51.454;7.194;2022-12-24T13:24:46;13.80;99.90
1391;DHT22;690;51.454;7.194;2022-12-24T13:27:18;13.90;99.90
1391;DHT22;690;51.454;7.194;2022-12-24T13:29:52;13.90;65.10
1391;DHT22;690;51.454;7.194;2022-12-24T13:32:47;14.00;59.00
1391;DHT22;690;51.454;7.194;2022-12-24T13:35:34;13.90;28.50
1391;DHT22;690;51.454;7.194;2022-12-24T13:41:37;13.90;10.00
1391;DHT22;690;51.454;7.194;2022-12-24T13:44:29;13.80;1.00
1391;DHT22;690;51.454;7.194;2022-12-24T13:49:49;13.80;1.00
1391;DHT22;690;51.454;7.194;2022-12-24T13:52:21;13.80;1.00
1391;DHT22;690;51.454;7.194;2022-12-24T13:55:01;13.80;1.00
1391;DHT22;690;51.454;7.194;2022-12-24T13:57:38;13.80;1.00
1391;DHT22;690;51.454;7.194;2022-12-24T14:03:13;13.70;1.00
1391;DHT22;690;51.454;7.194;2022-12-24T14:05:45;13.70;1.00
1391;DHT22;690;51.454;7.194;2022-12-24T14:08:15;13.70;1.00
1391;DHT22;690;51.454;7.194;2022-12-24T14:11:08;13.70;1.00
1391;DHT22;690;51.454;7.194;2022-12-24T14:13:51;13.70;1.00
1391;DHT22;690;51.454;7.194;2022-12-24T14:16:21;13.70;1.00
1391;DHT22;690;51.454;7.194;2022-12-24T14:18:56;13.70;1.00
1391;DHT22;690;51.454;7.194;2022-12-24T14:21:27;13.70;1.00
1391;DHT22;690;51.454;7.194;2022-12-24T14:23:56;13.70;1.00
1391;DHT22;690;51.454;7.194;2022-12-24T14:26:27;13.70;1.00
1391;DHT22;690;51.454;7.194;2022-12-24T14:28:58;13.70;1.00
1391;DHT22;690;51.454;7.194;2022-12-24T14:31:26;13.70;1.00
1391;DHT22;690;51.454;7.194;2022-12-24T14:34:05;13.60;1.00
1391;DHT22;690;51.454;7.194;2022-12-24T14:36:32;13.60;1.00
1391;DHT22;690;51.454;7.194;2022-12-24T14:39:00;13.60;1.00
1391;DHT22;690;51.454;7.194;2022-12-24T14:41:38;13.60;1.00
1391;DHT22;690;51.454;7.194;2022-12-24T14:44:12;13.60;1.00
1391;DHT22;690;51.454;7.194;2022-12-24T14:46:47;13.60;1.00
1391;DHT22;690;51.454;7.194;2022-12-24T14:49:29;13.50;1.00
1391;DHT22;690;51.454;7.194;2022-12-24T14:52:03;13.50;1.00
1391;DHT22;690;51.454;7.194;2022-12-24T14:54:34;13.50;1.00
1391;DHT22;690;51.454;7.194;2022-12-24T14:57:11;13.40;1.00
1391;DHT22;690;51.454;7.194;2022-12-24T14:59:43;13.40;1.00
1391;DHT22;690;51.454;7.194;2022-12-24T15:05:11;13.40;1.00
1391;DHT22;690;51.454;7.194;2022-12-24T15:07:42;13.30;1.00
1391;DHT22;690;51.454;7.194;2022-12-24T15:10:28;13.30;1.00
1391;DHT22;690;51.454;7.194;2022-12-24T15:13:00;13.20;1.00
1391;DHT22;690;51.454;7.194;2022-12-24T15:15:27;13.10;1.00
1391;DHT22;690;51.454;7.194;2022-12-24T15:17:56;13.10;1.00
1391;DHT22;690;51.454;7.194;2022-12-24T15:20:24;13.00;1.00
1391;DHT22;690;51.454;7.194;2022-12-24T15:22:55;13.00;1.00
1391;DHT22;690;51.454;7.194;2022-12-24T15:25:23;12.90;1.00
1391;DHT22;690;51.454;7.194;2022-12-24T15:27:51;12.90;1.00
1391;DHT22;690;51.454;7.194;2022-12-24T15:30:19;12.90;1.00
1391;DHT22;690;51.454;7.194;2022-12-24T15:32:48;12.80;1.00
1391;DHT22;690;51.454;7.194;2022-12-24T15:35:51;12.80;1.00
1391;DHT22;690;51.454;7.194;2022-12-24T15:38:25;12.90;1.00
1391;DHT22;690;51.454;7.194;2022-12-24T15:40:53;12.90;1.00
1391;DHT22;690;51.454;7.194;2022-12-24T15:43:21;12.90;1.00
1391;DHT22;690;51.454;7.194;2022-12-24T15:45:48;12.90;1.00
1391;DHT22;690;51.454;7.194;2022-12-24T15:48:18;12.90;1.00
1391;DHT22;690;51.454;7.194;2022-12-24T15:50:50;12.90;1.00
1391;DHT22;690;51.454;7.194;2022-12-24T15:53:23;12.90;1.00
1391;DHT22;690;51.454;7.194;2022-12-24T15:56:03;12.80;1.00
1391;DHT22;690;51.454;7.194;2022-12-24T15:58:32;12.80;1.00
1391;DHT22;690;51.454;7.194;2022-12-24T16:01:03;12.80;1.00
1391;DHT22;690;51.454;7.194;2022-12-24T16:03:30;12.80;1.00
1391;DHT22;690;51.454;7.194;2022-12-24T16:06:00;12.70;1.00
1391;DHT22;690;51.454;7.194;2022-12-24T16:08:31;12.70;1.00
1391;DHT22;690;51.454;7.194;2022-12-24T16:11:13;12.60;1.00
1391;DHT22;690;51.454;7.194;2022-12-24T16:13:52;12.60;1.00
1391;DHT22;690;51.454;7.194;2022-12-24T16:16:28;12.60;1.00
1391;DHT22;690;51.454;7.194;2022-12-24T16:18:57;12.50;1.00
1391;DHT22;690;51.454;7.194;2022-12-24T16:21:28;12.50;1.00
1391;DHT22;690;51.454;7.194;2022-12-24T16:24:01;12.40;1.00
1391;DHT22;690;51.454;7.194;2022-12-24T16:26:30;12.40;1.00
1391;DHT22;690;51.454;7.194;2022-12-24T16:28:57;12.30;1.00
1391;DHT22;690;51.454;7.194;2022-12-24T16:31:30;12.20;1.00
1391;DHT22;690;51.454;7.194;2022-12-24T16:33:58;12.10;1.00
1391;DHT22;690;51.454;7.194;2022-12-24T16:36:27;12.10;1.00
1391;DHT22;690;51.454;7.194;2022-12-24T16:38:55;12.10;1.00
1391;DHT22;690;51.454;7.194;2022-12-24T16:41:40;12.10;1.00
1391;DHT22;690;51.454;7.194;2022-12-24T16:44:24;12.00;1.00
1391;DHT22;690;51.454;7.194;2022-12-24T16:46:51;11.90;1.00
1391;DHT22;690;51.454;7.194;2022-12-24T16:49:19;11.90;1.00
1391;DHT22;690;51.454;7.194;2022-12-24T16:51:48;11.90;1.00
1391;DHT22;690;51.454;7.194;2022-12-24T16:54:15;11.80;1.00
1391;DHT22;690;51.454;7.194;2022-12-24T16:56:42;11.80;1.00
1391;DHT22;690;51.454;7.194;2022-12-24T16:59:15;11.80;1.00
1391;DHT22;690;51.454;7.194;2022-12-24T17:01:42;11.70;7.10
1391;DHT22;690;51.454;7.194;2022-12-24T17:04:09;11.70;16.80
1391;DHT22;690;51.454;7.194;2022-12-24T17:06:37;11.70;26.80